createdAt,value
2019-05-30T00:01:44.998Z,102082.48
2019-05-30T00:04:33.118Z,102074.92
2019-05-30T00:07:20.752Z,102075.88
2019-05-30T00:10:08.667Z,102066.61
2019-05-30T00:12:57.039Z,102071.63
2019-05-30T00:15:45.766Z,102067.30
2019-05-30T00:18:33.458Z,102066.41
2019-05-30T00:21:22.067Z,102064.39
2019-05-30T00:24:10.329Z,102065.34
2019-05-30T00:26:58.652Z,102068.64
2019-05-30T00:29:46.749Z,102070.55
2019-05-30T00:32:35.230Z,102061.67
2019-05-30T00:35:23.925Z,102057.32
2019-05-30T00:38:12.142Z,102060.58
2019-05-30T00:41:01.988Z,102054.91
2019-05-30T00:43:50.638Z,102064.36
2019-05-30T00:46:38.381Z,102050.55
2019-05-30T00:49:26.931Z,102050.64
2019-05-30T00:52:14.762Z,102050.74
2019-05-30T00:55:04.733Z,102046.20
2019-05-30T00:57:52.992Z,102051.30
2019-05-30T01:00:43.767Z,102044.17
2019-05-30T01:03:30.652Z,102038.38
2019-05-30T01:06:19.753Z,102042.03
2019-05-30T01:09:07.931Z,102039.33
2019-05-30T01:11:56.995Z,102043.97
2019-05-30T01:14:45.370Z,102048.48
2019-05-30T01:17:33.402Z,102046.37
2019-05-30T01:20:21.889Z,102045.48
2019-05-30T01:23:12.190Z,102042.41
2019-05-30T01:26:01.327Z,102043.36
2019-05-30T01:28:50.037Z,102042.11
2019-05-30T01:31:38.189Z,102043.95
2019-05-30T01:34:26.593Z,102043.55
2019-05-30T01:37:14.601Z,102045.45
2019-05-30T01:40:04.142Z,102044.10
2019-05-30T01:42:57.870Z,102044.20
2019-05-30T01:45:49.445Z,102043.83
2019-05-30T01:48:38.178Z,102042.27
2019-05-30T01:51:26.469Z,102041.11
2019-05-30T01:54:15.027Z,102032.61
2019-05-30T01:57:05.372Z,102031.35
2019-05-30T01:59:53.641Z,102031.14
2019-05-30T02:02:41.370Z,102033.44
2019-05-30T02:05:31.156Z,102018.38
2019-05-30T02:08:19.449Z,102023.87
2019-05-30T02:11:07.796Z,102021.36
2019-05-30T02:13:56.021Z,102017.95
2019-05-30T02:16:43.940Z,102016.78
2019-05-30T02:19:32.700Z,102015.63
2019-05-30T02:22:20.837Z,102015.80
2019-05-30T02:25:08.560Z,102008.72
2019-05-30T02:27:56.303Z,102006.20
2019-05-30T02:30:44.618Z,102009.00
2019-05-30T02:33:33.008Z,102005.50
2019-05-30T02:36:20.709Z,102006.08
2019-05-30T02:39:11.370Z,101999.52
2019-05-30T02:42:00.950Z,101991.97
2019-05-30T02:44:49.696Z,102000.16
2019-05-30T02:47:37.806Z,101998.50
2019-05-30T02:50:26.014Z,101997.83
2019-05-30T02:53:14.171Z,101997.91
2019-05-30T02:56:03.558Z,101994.81
2019-05-30T02:58:52.071Z,101997.20
2019-05-30T03:01:59.105Z,101998.64
2019-05-30T03:04:31.153Z,101992.08
2019-05-30T03:07:19.043Z,101997.08
2019-05-30T03:10:09.433Z,101993.03
2019-05-30T03:12:58.325Z,101988.62
2019-05-30T03:15:46.814Z,101991.86
2019-05-30T03:18:35.615Z,101991.46
2019-05-30T03:21:23.604Z,101990.30
2019-05-30T03:24:13.852Z,101991.19
2019-05-30T03:27:02.591Z,101994.34
2019-05-30T03:29:53.895Z,101996.67
2019-05-30T03:35:41.770Z,101996.36
2019-05-30T03:38:23.917Z,102004.45
2019-05-30T03:41:12.970Z,102008.09
2019-05-30T03:44:01.546Z,102008.95
2019-05-30T03:46:57.279Z,102006.34
2019-05-30T03:49:47.008Z,102007.78
2019-05-30T03:52:36.632Z,102010.48
2019-05-30T03:55:25.093Z,102007.88
2019-05-30T03:58:20.351Z,102014.16
2019-05-30T04:01:12.641Z,102017.80
2019-05-30T04:04:11.570Z,102016.45
2019-05-30T04:07:03.299Z,102009.31
2019-05-30T04:09:53.865Z,102020.09
2019-05-30T04:13:02.040Z,102010.26
2019-05-30T04:15:51.103Z,102017.41
2019-05-30T04:18:40.320Z,102024.72
2019-05-30T04:21:28.345Z,102017.58
2019-05-30T04:24:17.519Z,102021.53
2019-05-30T04:27:07.792Z,102017.58
2019-05-30T04:29:57.212Z,102019.78
2019-05-30T04:33:20.792Z,102005.94
2019-05-30T04:35:57.127Z,102010.44
2019-05-30T04:38:47.219Z,102015.83
2019-05-30T04:41:35.765Z,102014.08
2019-05-30T04:44:24.577Z,102023.61
2019-05-30T04:47:33.674Z,102029.89
2019-05-30T04:50:24.895Z,102028.14
2019-05-30T04:53:14.106Z,102036.23
2019-05-30T04:56:02.888Z,102038.06
2019-05-30T04:58:51.865Z,102036.23
2019-05-30T05:01:41.841Z,102040.28
2019-05-30T05:04:36.485Z,102038.53
2019-05-30T05:07:26.994Z,102035.45
2019-05-30T05:10:20.226Z,102046.61
2019-05-30T05:13:12.244Z,102052.01
2019-05-30T05:16:01.868Z,102037.67
2019-05-30T05:18:51.406Z,102046.61
2019-05-30T05:21:40.771Z,102051.06
2019-05-30T05:24:29.159Z,102049.80
2019-05-30T05:27:18.233Z,102039.42
2019-05-30T05:30:09.108Z,102036.72
2019-05-30T05:32:59.220Z,102038.92
2019-05-30T05:35:48.711Z,102038.92
2019-05-30T05:38:37.650Z,102036.23
2019-05-30T05:41:26.079Z,102037.58
2019-05-30T05:44:16.193Z,102039.78
2019-05-30T05:47:05.433Z,102046.44
2019-05-30T05:49:54.954Z,102049.14
2019-05-30T05:52:43.474Z,102064.77
2019-05-30T05:55:36.441Z,102062.08
2019-05-30T05:58:26.362Z,102053.13
2019-05-30T06:01:15.284Z,102058.44
2019-05-30T06:04:12.617Z,102056.19
2019-05-30T06:06:54.026Z,102063.25
2019-05-30T06:09:43.909Z,102053.32
2019-05-30T06:12:32.554Z,102059.03
2019-05-30T06:15:21.037Z,102068.88
2019-05-30T06:18:10.109Z,102076.88
2019-05-30T06:20:58.938Z,102082.98
2019-05-30T06:23:49.249Z,102083.84
2019-05-30T06:26:39.309Z,102083.76
2019-05-30T06:29:29.918Z,102088.20
2019-05-30T06:32:24.572Z,102088.13
2019-05-30T06:35:13.304Z,102078.19
2019-05-30T06:38:03.358Z,102086.68
2019-05-30T06:40:52.891Z,102081.69
2019-05-30T06:43:46.356Z,102082.06
2019-05-30T06:46:36.028Z,102081.11
2019-05-30T06:49:29.036Z,102086.42
2019-05-30T06:52:25.113Z,102081.91
2019-05-30T06:55:14.443Z,102093.97
2019-05-30T06:58:03.543Z,102092.53
2019-05-30T07:00:51.874Z,102100.13
2019-05-30T07:03:39.702Z,102102.74
2019-05-30T07:06:31.677Z,102109.40
2019-05-30T07:09:29.406Z,102112.02
2019-05-30T07:12:17.447Z,102114.25
2019-05-30T07:15:06.976Z,102119.56
2019-05-30T07:17:55.066Z,102116.28
2019-05-30T07:20:44.881Z,102108.19
2019-05-30T07:23:34.187Z,102110.42
2019-05-30T07:26:30.349Z,102106.29
2019-05-30T07:29:18.697Z,102106.66
2019-05-30T07:32:06.785Z,102109.36
2019-05-30T07:35:06.021Z,102117.86
2019-05-30T07:37:46.694Z,102121.91
2019-05-30T07:40:35.039Z,102127.21
2019-05-30T07:43:26.506Z,102131.66
2019-05-30T07:46:16.967Z,102133.96
2019-05-30T07:49:05.227Z,102145.56
2019-05-30T07:51:53.364Z,102146.42
2019-05-30T07:54:41.631Z,102146.42
2019-05-30T07:57:32.823Z,102146.82
2019-05-30T08:00:22.103Z,102146.24
2019-05-30T08:03:10.618Z,102147.59
2019-05-30T08:05:58.556Z,102148.00
2019-05-30T08:08:46.924Z,102151.09
2019-05-30T08:11:35.139Z,102153.70
2019-05-30T08:14:23.876Z,102158.13
2019-05-30T08:17:12.389Z,102162.08
2019-05-30T08:20:00.528Z,102166.08
2019-05-30T08:22:50.709Z,102164.27
2019-05-30T08:25:39.201Z,102160.62
2019-05-30T08:28:28.769Z,102159.55
2019-05-30T08:31:17.442Z,102164.89
2019-05-30T08:34:05.807Z,102166.61
2019-05-30T08:36:54.149Z,102160.27
2019-05-30T08:39:42.627Z,102153.92
2019-05-30T08:42:31.390Z,102167.23
2019-05-30T08:45:20.529Z,102181.14
2019-05-30T08:48:08.577Z,102172.86
2019-05-30T08:50:56.919Z,102166.88
2019-05-30T08:53:45.367Z,102166.70
2019-05-30T08:56:34.467Z,102165.20
2019-05-30T08:59:23.245Z,102168.67
2019-05-30T09:02:11.490Z,102167.05
2019-05-30T09:05:00.376Z,102157.05
2019-05-30T09:07:48.532Z,102162.67
2019-05-30T09:10:37.818Z,102159.78
2019-05-30T09:13:27.669Z,102159.52
2019-05-30T09:16:15.998Z,102165.13
2019-05-30T09:19:04.256Z,102166.70
2019-05-30T09:21:52.288Z,102175.39
2019-05-30T09:24:42.167Z,102184.59
2019-05-30T09:27:30.684Z,102187.03
2019-05-30T09:30:19.404Z,102188.59
2019-05-30T09:33:07.821Z,102198.63
2019-05-30T09:36:09.987Z,102206.95
2019-05-30T09:38:47.381Z,102212.97
2019-05-30T09:41:36.385Z,102210.08
2019-05-30T09:44:25.601Z,102211.25
2019-05-30T09:47:14.290Z,102200.64
2019-05-30T09:50:03.937Z,102202.20
2019-05-30T09:52:53.902Z,102200.70
2019-05-30T09:55:43.290Z,102210.38
2019-05-30T09:58:36.796Z,102215.99
2019-05-30T10:01:26.382Z,102215.61
2019-05-30T10:04:15.315Z,102210.50
2019-05-30T10:07:06.798Z,102212.56
2019-05-30T10:09:55.278Z,102209.56
2019-05-30T10:12:45.581Z,102206.37
2019-05-30T10:15:36.463Z,102208.84
2019-05-30T10:18:27.444Z,102211.66
2019-05-30T10:21:25.399Z,102210.31
2019-05-30T10:24:21.434Z,102208.09
2019-05-30T10:27:10.508Z,102214.98
2019-05-30T10:30:04.059Z,102217.08
2019-05-30T10:32:55.916Z,102228.30
2019-05-30T10:35:47.525Z,102212.89
2019-05-30T10:38:37.869Z,102210.17
2019-05-30T10:41:28.811Z,102218.28
2019-05-30T10:44:21.377Z,102225.92
2019-05-30T10:47:10.154Z,102231.72
2019-05-30T10:49:58.640Z,102234.41
2019-05-30T10:52:47.198Z,102232.23
2019-05-30T10:55:39.711Z,102237.27
2019-05-30T10:58:31.781Z,102244.59
2019-05-30T11:01:27.470Z,102246.42
2019-05-30T11:04:18.433Z,102250.09
2019-05-30T11:07:26.365Z,102254.52
2019-05-30T11:10:23.009Z,102253.98
2019-05-30T11:13:11.636Z,102252.70
2019-05-30T11:15:59.938Z,102243.67
2019-05-30T11:18:50.982Z,102243.63
2019-05-30T11:21:43.333Z,102246.08
2019-05-30T11:24:32.290Z,102253.48
2019-05-30T11:27:22.271Z,102251.97
2019-05-30T11:30:11.069Z,102254.05
2019-05-30T11:32:59.601Z,102259.54
2019-05-30T11:35:48.938Z,102253.20
2019-05-30T11:38:38.000Z,102251.42
2019-05-30T11:41:27.300Z,102241.08
2019-05-30T11:44:19.333Z,102249.16
2019-05-30T11:47:09.564Z,102252.20
2019-05-30T11:50:00.635Z,102251.67
2019-05-30T11:52:50.170Z,102257.15
2019-05-30T11:55:41.969Z,102260.77
2019-05-30T11:58:30.149Z,102266.83
2019-05-30T12:01:19.806Z,102271.18
2019-05-30T12:04:08.665Z,102269.48
2019-05-30T12:06:57.551Z,102259.03
2019-05-30T12:09:48.289Z,102265.98
2019-05-30T12:12:40.277Z,102256.12
2019-05-30T12:15:28.560Z,102264.81
2019-05-30T12:18:19.149Z,102264.50
2019-05-30T12:21:08.263Z,102280.84
2019-05-30T12:23:58.463Z,102279.64
2019-05-30T12:26:47.828Z,102281.77
2019-05-30T12:29:36.923Z,102276.63
2019-05-30T12:32:26.110Z,102280.16
2019-05-30T12:35:15.407Z,102272.75
2019-05-30T12:38:07.086Z,102271.06
2019-05-30T12:40:58.723Z,102280.16
2019-05-30T12:43:47.883Z,102289.23
2019-05-30T12:46:38.033Z,102282.48
2019-05-30T12:49:27.081Z,102290.93
2019-05-30T12:52:16.991Z,102282.02
2019-05-30T12:55:06.852Z,102286.50
2019-05-30T12:57:56.587Z,102289.97
2019-05-30T13:00:45.640Z,102287.52
2019-05-30T13:03:34.780Z,102299.27
2019-05-30T13:06:23.855Z,102296.43
2019-05-30T13:09:13.115Z,102297.67
2019-05-30T13:12:02.589Z,102303.63
2019-05-30T13:14:52.153Z,102301.42
2019-05-30T13:17:40.551Z,102300.21
2019-05-30T13:20:28.782Z,102302.05
2019-05-30T13:23:17.446Z,102303.03
2019-05-30T13:26:05.966Z,102313.84
2019-05-30T13:28:54.240Z,102307.24
2019-05-30T13:31:42.863Z,102304.16
2019-05-30T13:34:32.026Z,102307.11
2019-05-30T13:37:21.105Z,102303.65
2019-05-30T13:40:24.180Z,102303.27
2019-05-30T13:43:00.263Z,102295.83
2019-05-30T13:45:49.323Z,102308.09
2019-05-30T13:48:38.003Z,102305.45
2019-05-30T13:51:27.196Z,102308.67
2019-05-30T13:54:16.259Z,102302.71
2019-05-30T13:57:06.031Z,102307.05
2019-05-30T13:59:55.821Z,102309.28
2019-05-30T14:02:44.749Z,102310.41
2019-05-30T14:05:33.044Z,102317.67
2019-05-30T14:08:21.121Z,102311.56
2019-05-30T14:11:10.730Z,102311.85
2019-05-30T14:14:00.528Z,102306.34
2019-05-30T14:16:49.013Z,102308.53
2019-05-30T14:19:37.717Z,102299.88
2019-05-30T14:22:26.107Z,102304.48
2019-05-30T14:25:15.187Z,102313.64
2019-05-30T14:28:04.154Z,102317.28
2019-05-30T14:30:53.171Z,102317.58
2019-05-30T14:33:42.408Z,102312.95
2019-05-30T14:36:30.669Z,102320.22
2019-05-30T14:39:19.739Z,102313.70
2019-05-30T14:42:09.190Z,102307.08
2019-05-30T14:44:57.370Z,102312.35
2019-05-30T14:47:45.250Z,102315.03
2019-05-30T14:50:34.218Z,102306.62
2019-05-30T14:53:22.951Z,102305.42
2019-05-30T14:56:13.349Z,102293.28
2019-05-30T14:59:02.331Z,102291.19
2019-05-30T15:01:50.082Z,102290.54
2019-05-30T15:04:38.086Z,102296.55
2019-05-30T15:07:27.054Z,102288.52
2019-05-30T15:10:18.647Z,102308.54
2019-05-30T15:13:07.512Z,102301.17
2019-05-30T15:15:57.125Z,102300.17
2019-05-30T15:18:46.644Z,102302.02
2019-05-30T15:21:34.987Z,102308.00
2019-05-30T15:24:23.900Z,102303.28
2019-05-30T15:27:14.095Z,102299.83
2019-05-30T15:30:02.261Z,102303.77
2019-05-30T15:32:50.500Z,102305.84
2019-05-30T15:35:39.492Z,102303.39
2019-05-30T15:38:27.259Z,102305.95
2019-05-30T15:41:15.297Z,102311.61
2019-05-30T15:44:04.126Z,102310.38
2019-05-30T15:46:56.903Z,102304.63
2019-05-30T15:49:51.875Z,102308.48
2019-05-30T15:52:39.310Z,102308.13
2019-05-30T15:55:27.728Z,102322.22
2019-05-30T15:58:16.125Z,102316.67
2019-05-30T16:01:05.022Z,102317.68
2019-05-30T16:03:54.269Z,102309.96
2019-05-30T16:06:43.949Z,102316.77
2019-05-30T16:09:46.239Z,102324.59
2019-05-30T16:12:23.509Z,102322.36
2019-05-30T16:15:13.419Z,102310.14
2019-05-30T16:18:03.962Z,102315.41
2019-05-30T16:21:02.133Z,102319.78
2019-05-30T16:23:52.366Z,102317.66
2019-05-30T16:26:44.120Z,102303.83
2019-05-30T16:33:04.132Z,102310.75
2019-05-30T16:35:52.702Z,102319.43
2019-05-30T16:38:42.203Z,102314.16
2019-05-30T16:41:31.003Z,102316.45
2019-05-30T16:44:25.066Z,102320.10
2019-05-30T16:47:14.610Z,102315.25
2019-05-30T16:50:03.609Z,102321.77
2019-05-30T16:52:52.540Z,102331.82
2019-05-30T16:55:41.814Z,102324.80
2019-05-30T16:58:30.192Z,102317.14
2019-05-30T17:01:19.849Z,102322.36
2019-05-30T17:04:08.511Z,102324.33
2019-05-30T17:06:57.267Z,102330.28
2019-05-30T17:09:45.344Z,102324.64
2019-05-30T17:12:33.778Z,102314.86
2019-05-30T17:15:22.109Z,102314.48
2019-05-30T17:18:10.832Z,102312.88
2019-05-30T17:20:59.157Z,102308.94
2019-05-30T17:23:49.114Z,102301.73
2019-05-30T17:26:38.610Z,102301.55
2019-05-30T17:29:32.211Z,102301.33
2019-05-30T17:32:21.745Z,102294.98
2019-05-30T17:35:11.976Z,102306.05
2019-05-30T17:38:00.680Z,102298.82
2019-05-30T17:40:51.126Z,102302.20
2019-05-30T17:43:39.734Z,102300.67
2019-05-30T17:46:30.055Z,102299.08
2019-05-30T17:49:20.153Z,102300.27
2019-05-30T17:52:08.650Z,102297.50
2019-05-30T17:55:08.566Z,102305.50
2019-05-30T17:58:00.722Z,102301.86
2019-05-30T18:00:56.888Z,102310.02
2019-05-30T18:03:45.279Z,102311.34
2019-05-30T18:06:34.495Z,102306.70
2019-05-30T18:09:23.085Z,102309.72
2019-05-30T18:12:17.616Z,102310.17
2019-05-30T18:15:07.212Z,102310.95
2019-05-30T18:18:02.844Z,102307.16
2019-05-30T18:21:05.138Z,102315.63
2019-05-30T18:23:55.593Z,102320.02
2019-05-30T18:26:44.905Z,102327.14
2019-05-30T18:29:33.469Z,102334.25
2019-05-30T18:32:22.243Z,102332.67
2019-05-30T18:35:12.696Z,102330.59
2019-05-30T18:38:02.004Z,102324.78
2019-05-30T18:40:51.065Z,102315.47
2019-05-30T18:43:39.724Z,102313.27
2019-05-30T18:46:29.210Z,102318.48
2019-05-30T18:49:17.837Z,102316.75
2019-05-30T18:52:07.156Z,102318.63
2019-05-30T18:54:55.297Z,102320.74
2019-05-30T18:57:45.459Z,102321.38
2019-05-30T19:00:37.404Z,102321.89
2019-05-30T19:03:28.573Z,102325.73
2019-05-30T19:06:23.082Z,102321.77
2019-05-30T19:09:11.991Z,102322.72
2019-05-30T19:12:01.202Z,102330.51
2019-05-30T19:14:52.845Z,102321.47
2019-05-30T19:17:42.424Z,102327.55
2019-05-30T19:20:31.859Z,102323.06
2019-05-30T19:23:21.548Z,102323.44
2019-05-30T19:26:10.424Z,102325.77
2019-05-30T19:28:59.738Z,102332.69
2019-05-30T19:31:51.577Z,102329.95
2019-05-30T19:34:44.841Z,102334.65
2019-05-30T19:37:35.332Z,102338.06
2019-05-30T19:40:27.308Z,102336.42
2019-05-30T19:43:18.456Z,102344.18
2019-05-30T19:46:07.379Z,102338.33
2019-05-30T19:48:56.758Z,102348.92
2019-05-30T19:51:45.951Z,102353.59
2019-05-30T19:54:37.272Z,102356.48
2019-05-30T19:57:25.835Z,102357.84
2019-05-30T20:00:19.061Z,102361.63
2019-05-30T20:03:08.076Z,102364.89
2019-05-30T20:05:58.382Z,102369.55
2019-05-30T20:08:55.398Z,102372.34
2019-05-30T20:11:42.134Z,102374.71
2019-05-30T20:14:32.926Z,102382.44
2019-05-30T20:17:22.366Z,102379.89
2019-05-30T20:20:13.363Z,102378.87
2019-05-30T20:23:01.906Z,102374.86
2019-05-30T20:25:53.621Z,102376.27
2019-05-30T20:28:42.983Z,102372.25
2019-05-30T20:31:33.358Z,102373.17
2019-05-30T20:34:24.398Z,102377.19
2019-05-30T20:37:13.700Z,102374.52
2019-05-30T20:40:02.416Z,102386.29
2019-05-30T20:42:52.684Z,102388.08
2019-05-30T20:45:48.880Z,102388.88
2019-05-30T20:48:43.011Z,102390.53
2019-05-30T20:51:37.193Z,102393.67
2019-05-30T20:54:26.516Z,102392.14
2019-05-30T20:57:14.442Z,102392.07
2019-05-30T21:00:03.638Z,102396.75
2019-05-30T21:02:53.590Z,102400.14
2019-05-30T21:05:44.098Z,102394.03
2019-05-30T21:08:33.005Z,102395.24
2019-05-30T21:11:22.420Z,102401.75
2019-05-30T21:14:11.556Z,102412.20
2019-05-30T21:17:00.521Z,102405.73
2019-05-30T21:19:50.372Z,102404.48
2019-05-30T21:22:40.509Z,102421.34
2019-05-30T21:25:29.637Z,102410.30
2019-05-30T21:28:21.639Z,102412.26
2019-05-30T21:31:10.463Z,102415.55
2019-05-30T21:34:04.157Z,102410.72
2019-05-30T21:36:56.728Z,102409.08
2019-05-30T21:39:46.092Z,102407.82
2019-05-30T21:42:34.110Z,102406.17
2019-05-30T21:45:24.301Z,102409.98
2019-05-30T21:48:12.736Z,102410.55
2019-05-30T21:51:03.029Z,102414.62
2019-05-30T21:53:52.945Z,102401.27
2019-05-30T21:56:43.990Z,102406.30
2019-05-30T21:59:37.905Z,102413.67
2019-05-30T22:02:27.820Z,102410.58
2019-05-30T22:05:16.753Z,102407.17
2019-05-30T22:08:08.903Z,102407.28
2019-05-30T22:10:58.857Z,102409.23
2019-05-30T22:13:48.001Z,102408.08
2019-05-30T22:16:38.932Z,102408.65
2019-05-30T22:19:28.491Z,102407.39
2019-05-30T22:22:17.196Z,102404.78
2019-05-30T22:25:07.415Z,102407.59
2019-05-30T22:27:56.720Z,102409.02
2019-05-30T22:30:46.930Z,102406.52
2019-05-30T22:33:35.888Z,102411.55
2019-05-30T22:36:25.147Z,102418.42
2019-05-30T22:39:14.748Z,102420.28
2019-05-30T22:42:04.497Z,102410.88
2019-05-30T22:44:56.571Z,102417.38
2019-05-30T22:47:46.366Z,102410.20
2019-05-30T22:50:36.852Z,102415.22
2019-05-30T22:53:25.149Z,102418.03
2019-05-30T22:56:13.314Z,102413.61
2019-05-30T22:59:02.787Z,102416.88
2019-05-30T23:01:53.722Z,102420.09
2019-05-30T23:04:44.254Z,102422.01
2019-05-30T23:07:36.602Z,102426.17
2019-05-30T23:10:33.640Z,102420.85
2019-05-30T23:13:22.825Z,102422.31
2019-05-30T23:16:13.777Z,102424.27
2019-05-30T23:19:03.073Z,102418.91
2019-05-30T23:21:53.289Z,102418.54
2019-05-30T23:24:43.543Z,102416.03
2019-05-30T23:27:32.584Z,102426.47
2019-05-30T23:30:23.739Z,102422.02
2019-05-30T23:33:14.031Z,102420.76
2019-05-30T23:36:02.923Z,102418.14
2019-05-30T23:38:51.036Z,102421.91
2019-05-30T23:41:39.708Z,102420.66
2019-05-30T23:44:30.448Z,102416.69
2019-05-30T23:47:27.605Z,102417.19
2019-05-30T23:50:17.666Z,102419.50
2019-05-30T23:53:09.028Z,102423.66
2019-05-30T23:55:58.420Z,102422.01
2019-05-30T23:58:48.541Z,102419.00
